Terminal Aerodrome Forecast
Issued by NWS Austin/San Antonio, TX

Home | Current Version | Previous Version | Text Only | Print | Product List | Glossary On
Versions: 1 2 3 4 5 6 7 8 9 10 11 12 13 14 15 16 17 18 19
000
FTUS44 KEWX 022300
TAFAUS
TAF
KAUS 022337Z 0300/0406 17012KT P6SM SCT070 BKN200
     FM030200 16010KT P6SM FEW060
     FM030700 17005KT P6SM BKN012
     FM031600 17012KT P6SM BKN040
     FM032000 16010G20KT P6SM SCT060 SCT200
     FM040300 17007KT P6SM SCT060=

USA.gov is the U.S. government's official web portal to all federal, state and local government web resources and services.